Time;durP1;ratioP1;P1;durP2;ratioP2;P2;SDS_P1;SDS_P2;PMS_P1;PMS_P2;Temp;Humidity;BMP_temperature;BMP_pressure;BME280_temperature;BME280_humidity;BME280_pressure;Samples;Min_cycle;Max_cycle;Signal;HPM_P1;HPM_P2
2023/09/03 00:00:24;;;;;;;6.87;4.53;;;;;;;15.66;100.00;101792.63;5088810;28;20488;-71
2023/09/03 00:02:53;;;;;;;11.30;7.07;;;;;;;15.68;100.00;101793.16;5086141;28;20460;-71
2023/09/03 00:05:21;;;;;;;8.90;4.80;;;;;;;15.65;100.00;101796.50;5094799;28;20488;-71
2023/09/03 00:07:47;;;;;;;5.90;3.80;;;;;;;15.61;100.00;101790.00;5074911;28;20465;-71
2023/09/03 00:10:14;;;;;;;7.47;3.47;;;;;;;15.58;100.00;101793.31;5074122;28;20848;-71
2023/09/03 00:12:41;;;;;;;4.37;2.77;;;;;;;15.58;100.00;101796.06;5084202;28;20472;-71
2023/09/03 00:15:08;;;;;;;5.60;3.03;;;;;;;15.56;100.00;101801.81;5074705;28;20969;-71
2023/09/03 00:17:35;;;;;;;6.80;3.37;;;;;;;15.53;100.00;101787.97;5075105;28;20489;-71
2023/09/03 00:20:02;;;;;;;9.00;3.43;;;;;;;15.62;100.00;101791.59;5074657;28;20496;-71
2023/09/03 00:22:30;;;;;;;6.20;3.47;;;;;;;15.69;100.00;101792.03;5086001;28;20460;-71
2023/09/03 00:24:57;;;;;;;7.13;3.60;;;;;;;15.69;100.00;101794.78;5082335;28;20524;-71
2023/09/03 00:27:24;;;;;;;6.87;3.30;;;;;;;15.70;100.00;101799.13;5076606;28;20495;-70
2023/09/03 00:29:50;;;;;;;5.50;3.50;;;;;;;15.69;100.00;101802.16;5081913;28;20462;-70
2023/09/03 00:32:17;;;;;;;6.00;3.93;;;;;;;15.71;100.00;101799.91;5080500;28;20548;-70
2023/09/03 00:34:43;;;;;;;5.60;2.77;;;;;;;15.75;100.00;101793.53;5077220;28;20463;-70
2023/09/03 00:37:10;;;;;;;5.30;2.90;;;;;;;15.79;100.00;101800.00;5075309;28;20461;-70
2023/09/03 00:39:38;;;;;;;6.63;3.27;;;;;;;15.82;100.00;101799.41;5075729;28;20548;-70
2023/09/03 00:42:04;;;;;;;5.40;3.60;;;;;;;15.81;100.00;101797.78;5078412;28;20469;-70
2023/09/03 00:44:31;;;;;;;4.97;3.27;;;;;;;15.82;100.00;101796.66;5078304;28;20452;-70
2023/09/03 00:46:58;;;;;;;5.00;3.57;;;;;;;15.82;100.00;101795.88;5075125;28;20996;-70
2023/09/03 00:49:26;;;;;;;6.20;3.13;;;;;;;15.82;100.00;101790.41;5090140;28;20488;-70
2023/09/03 00:51:54;;;;;;;6.10;2.70;;;;;;;15.85;100.00;101789.78;5085085;28;20869;-70
2023/09/03 00:54:23;;;;;;;6.43;4.03;;;;;;;15.88;100.00;101795.44;5093399;28;20493;-70
2023/09/03 00:56:54;;;;;;;4.47;2.97;;;;;;;15.88;100.00;101805.56;5083197;28;20474;-70
2023/09/03 00:59:20;;;;;;;5.03;2.97;;;;;;;15.92;100.00;101806.56;5092321;28;20459;-70
2023/09/03 01:01:48;;;;;;;5.37;3.40;;;;;;;15.89;100.00;101808.00;5083136;28;20496;-71
2023/09/03 01:04:15;;;;;;;5.30;3.40;;;;;;;15.93;100.00;101807.38;5081411;28;20468;-71
2023/09/03 01:06:42;;;;;;;6.27;3.10;;;;;;;15.94;100.00;101800.78;5085537;28;20489;-71
2023/09/03 01:09:10;;;;;;;5.40;3.17;;;;;;;15.93;100.00;101804.63;5085048;28;20509;-71
2023/09/03 01:11:43;;;;;;;8.77;3.30;;;;;;;15.94;100.00;101798.88;5083641;28;20463;-71
2023/09/03 01:14:21;;;;;;;7.77;4.27;;;;;;;15.97;100.00;101800.19;5083738;28;20462;-71
2023/09/03 01:16:55;;;;;;;5.07;3.60;;;;;;;15.92;100.00;101789.34;5085538;28;20999;-71
2023/09/03 01:19:50;;;;;;;6.37;4.27;;;;;;;15.87;100.00;101804.75;5083601;28;20453;-71
2023/09/03 01:22:29;;;;;;;6.43;4.10;;;;;;;15.83;100.00;101808.41;5080281;28;20492;-70
2023/09/03 01:25:09;;;;;;;5.40;2.93;;;;;;;15.80;100.00;101809.00;5082512;28;20559;-71
2023/09/03 01:27:43;;;;;;;5.87;3.63;;;;;;;15.79;100.00;101801.94;5091008;28;20460;-71
2023/09/03 01:30:11;;;;;;;9.00;4.43;;;;;;;15.85;100.00;101806.19;5086235;28;20626;-71
2023/09/03 01:32:39;;;;;;;5.93;3.20;;;;;;;15.87;100.00;101799.28;5075916;28;20457;-71
2023/09/03 01:35:07;;;;;;;6.20;3.17;;;;;;;15.89;100.00;101802.53;5076465;28;20528;-71
2023/09/03 01:37:34;;;;;;;7.20;4.20;;;;;;;15.92;100.00;101800.28;5093522;28;20551;-71
2023/09/03 01:40:01;;;;;;;5.60;3.47;;;;;;;15.92;100.00;101800.28;5083874;28;20944;-71
2023/09/03 01:42:27;;;;;;;6.60;3.57;;;;;;;15.88;100.00;101800.09;5072675;28;20488;-71
2023/09/03 01:44:54;;;;;;;7.30;4.17;;;;;;;15.86;100.00;101808.59;5074938;28;20501;-71
2023/09/03 01:47:28;;;;;;;7.47;3.53;;;;;;;15.87;100.00;101809.41;5092053;28;20493;-70
2023/09/03 01:50:03;;;;;;;5.63;3.40;;;;;;;15.84;100.00;101812.75;5080621;28;20448;-70
2023/09/03 01:52:37;;;;;;;6.00;4.10;;;;;;;15.78;100.00;101803.84;5084788;28;20463;-70
2023/09/03 01:55:09;;;;;;;8.27;4.73;;;;;;;15.74;100.00;101799.31;5076124;28;20891;-70
2023/09/03 01:57:40;;;;;;;6.50;3.43;;;;;;;15.67;100.00;101794.28;5074080;28;20436;-70
2023/09/03 02:00:11;;;;;;;6.50;3.83;;;;;;;15.63;100.00;101794.03;5079772;28;21008;-70
2023/09/03 02:02:42;;;;;;;9.30;4.83;;;;;;;15.54;100.00;101797.81;5075709;28;20824;-70
2023/09/03 02:05:09;;;;;;;6.23;3.87;;;;;;;15.52;100.00;101787.16;5078656;28;20496;-70
2023/09/03 02:07:36;;;;;;;7.23;4.50;;;;;;;15.49;100.00;101797.88;5085069;28;20442;-70
2023/09/03 02:10:03;;;;;;;5.13;3.70;;;;;;;15.41;100.00;101804.06;5073432;28;20450;-70
2023/09/03 02:12:30;;;;;;;8.97;5.27;;;;;;;15.38;100.00;101806.28;5091838;28;20547;-70
2023/09/03 02:14:56;;;;;;;6.77;3.87;;;;;;;15.36;100.00;101808.53;5086505;28;20467;-71
2023/09/03 02:17:24;;;;;;;7.20;3.63;;;;;;;15.25;100.00;101803.56;5074289;28;20465;-70
2023/09/03 02:19:54;;;;;;;6.57;3.20;;;;;;;15.25;100.00;101803.56;5091092;22;20463;-68
2023/09/03 02:22:22;;;;;;;5.83;3.30;;;;;;;15.26;100.00;101803.25;5112445;28;20858;-68
2023/09/03 02:24:50;;;;;;;6.40;3.60;;;;;;;15.24;100.00;101800.03;5112725;28;20455;-69
2023/09/03 02:27:17;;;;;;;13.57;4.63;;;;;;;15.21;100.00;101789.69;5092529;28;20823;-69
2023/09/03 02:29:44;;;;;;;8.73;4.27;;;;;;;15.23;100.00;101784.75;5092034;28;20456;-69
2023/09/03 02:32:10;;;;;;;6.07;3.20;;;;;;;15.26;100.00;101786.88;5092114;28;20486;-69
2023/09/03 02:34:37;;;;;;;6.20;3.83;;;;;;;15.26;100.00;101799.69;5092808;28;20491;-70
2023/09/03 02:37:05;;;;;;;7.43;3.77;;;;;;;15.24;100.00;101804.66;5090511;28;22210;-70
2023/09/03 02:39:32;;;;;;;5.50;3.53;;;;;;;15.20;100.00;101801.72;5092836;28;20441;-70
2023/09/03 02:41:59;;;;;;;5.57;3.70;;;;;;;15.17;100.00;101818.69;5092136;28;20461;-70
2023/09/03 02:44:26;;;;;;;5.10;2.90;;;;;;;15.14;100.00;101811.94;5092255;28;20525;-70
2023/09/03 02:46:53;;;;;;;5.63;3.30;;;;;;;15.11;100.00;101809.00;5092184;28;20484;-70
2023/09/03 02:49:21;;;;;;;6.37;4.47;;;;;;;15.11;100.00;101803.53;5091932;28;20495;-70
2023/09/03 02:51:48;;;;;;;4.60;2.93;;;;;;;15.06;100.00;101795.47;5090037;28;20459;-70
2023/09/03 02:54:16;;;;;;;7.10;3.57;;;;;;;15.00;100.00;101783.81;5093401;28;20938;-70
2023/09/03 02:56:43;;;;;;;5.37;2.97;;;;;;;14.93;100.00;101786.13;5091925;28;20537;-69
2023/09/03 02:59:09;;;;;;;6.60;4.03;;;;;;;14.85;100.00;101789.56;5090567;28;20453;-69
2023/09/03 03:01:36;;;;;;;7.03;4.00;;;;;;;14.77;100.00;101788.31;5090732;28;20551;-69
2023/09/03 03:04:03;;;;;;;5.20;3.20;;;;;;;14.79;100.00;101802.47;5093259;28;20468;-69
2023/09/03 03:06:30;;;;;;;5.73;3.57;;;;;;;14.79;100.00;101793.50;5093813;28;20483;-69
2023/09/03 03:08:57;;;;;;;5.97;3.23;;;;;;;14.85;100.00;101795.81;5095320;28;21003;-69
2023/09/03 03:11:25;;;;;;;5.20;2.73;;;;;;;14.85;100.00;101790.34;5093795;28;20539;-69
2023/09/03 03:13:52;;;;;;;5.13;3.10;;;;;;;14.86;100.00;101800.16;5093081;28;20460;-69
2023/09/03 03:16:19;;;;;;;5.10;3.07;;;;;;;14.91;100.00;101798.44;5095114;28;20479;-69
2023/09/03 03:18:46;;;;;;;6.10;3.57;;;;;;;14.86;100.00;101791.97;5095181;28;20960;-69
2023/09/03 03:21:14;;;;;;;5.23;2.93;;;;;;;14.92;100.00;101797.31;5093451;28;20495;-69
2023/09/03 03:23:42;;;;;;;5.57;3.23;;;;;;;14.93;100.00;101802.50;5095570;28;20470;-69
2023/09/03 03:26:09;;;;;;;5.97;3.33;;;;;;;14.99;100.00;101809.47;5093261;28;20488;-69
2023/09/03 03:28:37;;;;;;;4.47;2.90;;;;;;;15.01;100.00;101803.75;5096719;28;20440;-69
2023/09/03 03:31:11;;;;;;;6.20;3.40;;;;;;;15.05;100.00;101816.47;5091989;28;20488;-71
2023/09/03 03:33:39;;;;;;;6.00;2.90;;;;;;;15.07;100.00;101813.44;5095803;28;20505;-71
2023/09/03 03:36:06;;;;;;;5.53;3.00;;;;;;;15.07;100.00;101816.97;5096550;28;20512;-71
2023/09/03 03:38:33;;;;;;;4.10;2.63;;;;;;;15.09;100.00;101814.75;5095456;28;20962;-71
2023/09/03 03:41:08;;;;;;;6.20;3.20;;;;;;;15.16;100.00;101817.09;5092670;28;20796;-71
2023/09/03 03:43:36;;;;;;;6.40;3.40;;;;;;;15.18;100.00;101814.06;5091488;28;20466;-70
2023/09/03 03:46:03;;;;;;;5.90;3.70;;;;;;;15.19;100.00;101816.50;5091314;28;20850;-70
2023/09/03 03:48:30;;;;;;;4.83;2.60;;;;;;;15.20;100.00;101812.66;5083769;28;20459;-70
2023/09/03 03:50:56;;;;;;;6.30;3.67;;;;;;;15.18;100.00;101831.22;5093755;28;20452;-70
2023/09/03 03:53:23;;;;;;;5.27;3.60;;;;;;;15.21;100.00;101840.75;5090619;28;20452;-70
2023/09/03 03:55:57;;;;;;;3.87;2.23;;;;;;;15.17;100.00;101829.63;5094343;28;20834;-70
2023/09/03 03:58:24;;;;;;;7.50;4.07;;;;;;;15.13;100.00;101823.94;5092233;28;20478;-70
2023/09/03 04:00:52;;;;;;;7.83;3.77;;;;;;;15.15;100.00;101831.84;5093301;28;20463;-70
2023/09/03 04:03:18;;;;;;;5.03;2.87;;;;;;;15.17;100.00;101828.81;5095554;28;20555;-70
2023/09/03 04:05:45;;;;;;;4.90;2.53;;;;;;;15.14;100.00;101839.25;5094306;28;20527;-70
2023/09/03 04:08:11;;;;;;;6.17;3.40;;;;;;;15.14;100.00;101831.06;5095546;28;20548;-70
2023/09/03 04:10:38;;;;;;;6.33;2.90;;;;;;;15.14;100.00;101841.16;5092743;28;20971;-69
2023/09/03 04:13:04;;;;;;;4.77;2.90;;;;;;;15.12;100.00;101838.72;5095982;28;20447;-70
2023/09/03 04:15:31;;;;;;;5.77;2.57;;;;;;;15.14;100.00;101855.63;5095006;28;20476;-70
2023/09/03 04:17:59;;;;;;;7.43;3.00;;;;;;;15.13;100.00;101853.16;5093224;28;20543;-70
2023/09/03 04:20:26;;;;;;;4.60;3.10;;;;;;;15.09;100.00;101861.13;5092696;28;20470;-70
2023/09/03 04:22:53;;;;;;;5.10;2.97;;;;;;;15.06;100.00;101861.75;5092743;28;20460;-70
2023/09/03 04:25:20;;;;;;;3.33;1.97;;;;;;;15.10;100.00;101867.44;5093781;28;20523;-70
2023/09/03 04:27:46;;;;;;;4.70;2.53;;;;;;;15.04;100.00;101853.03;5094886;28;20506;-70
2023/09/03 04:30:12;;;;;;;3.70;1.80;;;;;;;15.05;100.00;101867.50;5092735;28;20480;-70
2023/09/03 04:32:39;;;;;;;4.27;2.53;;;;;;;15.06;100.00;101866.41;5095055;28;20453;-70
2023/09/03 04:35:08;;;;;;;5.00;2.90;;;;;;;15.03;100.00;101867.00;5093988;28;20551;-70
2023/09/03 04:37:35;;;;;;;3.93;2.00;;;;;;;15.00;100.00;101864.84;5094097;28;20978;-70
2023/09/03 04:40:01;;;;;;;3.67;2.30;;;;;;;14.99;100.00;101864.06;5093236;28;20548;-70
2023/09/03 04:42:28;;;;;;;5.03;3.10;;;;;;;14.96;100.00;101855.66;5094545;28;20959;-70
2023/09/03 04:44:54;;;;;;;4.83;2.90;;;;;;;14.99;100.00;101874.16;5091970;28;20482;-70
2023/09/03 04:47:21;;;;;;;5.30;2.50;;;;;;;14.98;100.00;101875.28;5094425;28;20491;-70
2023/09/03 04:49:48;;;;;;;3.53;2.03;;;;;;;14.98;100.00;101873.34;5092506;28;20488;-70
2023/09/03 04:52:15;;;;;;;5.13;2.73;;;;;;;14.97;100.00;101877.19;5092635;28;20579;-71
2023/09/03 04:54:43;;;;;;;3.10;1.70;;;;;;;14.97;100.00;101884.56;5093073;28;20455;-71
2023/09/03 04:57:10;;;;;;;4.80;2.50;;;;;;;14.93;100.00;101883.56;5092954;28;20529;-70
2023/09/03 04:59:37;;;;;;;4.63;2.30;;;;;;;14.90;100.00;101893.13;5089585;28;20936;-70
2023/09/03 05:02:03;;;;;;;4.57;1.93;;;;;;;14.89;100.00;101910.63;5093524;28;20536;-70
2023/09/03 05:04:30;;;;;;;4.47;2.30;;;;;;;14.85;100.00;101915.03;5093495;28;20515;-70
2023/09/03 05:06:57;;;;;;;6.43;2.30;;;;;;;14.86;100.00;101913.94;5092600;28;20576;-70
2023/09/03 05:09:25;;;;;;;5.20;1.90;;;;;;;14.85;100.00;101910.41;5090479;28;20606;-70
2023/09/03 05:11:52;;;;;;;4.00;2.07;;;;;;;14.86;100.00;101903.81;5091858;28;20461;-70
2023/09/03 05:14:18;;;;;;;6.23;2.30;;;;;;;14.88;100.00;101917.19;5093354;28;21038;-70
2023/09/03 05:16:45;;;;;;;5.67;2.80;;;;;;;14.90;100.00;101912.22;5091604;28;20515;-70
2023/09/03 05:19:14;;;;;;;6.60;2.50;;;;;;;14.95;100.00;101919.53;5089967;28;20453;-70
2023/09/03 05:21:41;;;;;;;3.47;1.90;;;;;;;14.96;100.00;101918.41;5092976;28;20478;-70
2023/09/03 05:24:08;;;;;;;4.17;2.17;;;;;;;14.98;100.00;101914.28;5095032;28;20456;-70
2023/09/03 05:26:36;;;;;;;3.60;1.93;;;;;;;15.07;100.00;101923.41;5092482;28;20540;-69
2023/09/03 05:29:03;;;;;;;3.90;1.90;;;;;;;15.14;100.00;101932.03;5093551;28;20536;-69
2023/09/03 05:31:30;;;;;;;4.60;2.33;;;;;;;15.19;100.00;101931.13;5090308;28;20456;-70
2023/09/03 05:33:57;;;;;;;5.57;2.17;;;;;;;15.20;100.00;101927.28;5091207;28;20463;-69
2023/09/03 05:36:23;;;;;;;10.43;3.40;;;;;;;15.21;100.00;101922.63;5094696;28;20448;-69
2023/09/03 05:38:50;;;;;;;3.90;2.23;;;;;;;15.24;100.00;101928.31;5093415;28;20464;-70
2023/09/03 05:41:17;;;;;;;7.30;2.33;;;;;;;15.24;100.00;101932.97;5094838;28;20510;-70
2023/09/03 05:43:45;;;;;;;5.13;1.77;;;;;;;15.25;100.00;101929.13;5092047;28;20543;-70
2023/09/03 05:46:12;;;;;;;4.40;2.33;;;;;;;15.26;100.00;101926.09;5089852;28;20480;-69
2023/09/03 05:48:39;;;;;;;4.37;2.07;;;;;;;15.27;100.00;101932.34;5093381;28;20460;-67
2023/09/03 05:51:05;;;;;;;4.00;2.23;;;;;;;15.34;100.00;101949.16;5092588;28;20517;-69
2023/09/03 05:53:33;;;;;;;4.13;2.30;;;;;;;15.31;100.00;101964.22;5092541;28;20899;-70
2023/09/03 05:56:10;;;;;;;5.33;2.23;;;;;;;15.36;100.00;101976.97;5089917;28;20921;-69
2023/09/03 05:58:37;;;;;;;4.47;2.10;;;;;;;15.38;100.00;101983.75;5091481;28;20478;-70
2023/09/03 06:01:06;;;;;;;3.70;1.93;;;;;;;15.42;100.00;101986.72;5089704;28;21070;-71
2023/09/03 06:03:33;;;;;;;4.00;1.80;;;;;;;15.46;100.00;101984.19;5096830;28;20444;-70
2023/09/03 06:06:02;;;;;;;3.73;2.00;;;;;;;15.51;100.00;101989.56;5097571;28;20546;-73
2023/09/03 06:08:29;;;;;;;4.27;2.13;;;;;;;15.59;100.00;102018.94;5092579;28;20449;-71
2023/09/03 06:10:56;;;;;;;4.87;2.27;;;;;;;15.65;100.00;102025.94;5092800;28;20527;-71
2023/09/03 06:13:23;;;;;;;3.53;1.90;;;;;;;15.69;100.00;102018.78;5094152;28;20464;-72
2023/09/03 06:15:49;;;;;;;3.60;1.77;;;;;;;15.75;100.00;102014.81;5093512;28;21019;-74
2023/09/03 06:18:17;;;;;;;4.60;2.40;;;;;;;15.80;100.00;102016.66;5093099;28;20523;-70
2023/09/03 06:20:44;;;;;;;3.00;1.50;;;;;;;15.82;100.00;102026.19;5092354;28;20448;-70
2023/09/03 06:23:15;;;;;;;3.10;1.20;;;;;;;15.83;100.00;102014.13;5073636;28;20441;-70
2023/09/03 06:25:42;;;;;;;3.40;1.17;;;;;;;15.86;100.00;102013.53;5079780;28;20536;-70
2023/09/03 06:28:09;;;;;;;3.57;1.57;;;;;;;15.87;100.00;102014.34;5101024;28;20483;-70
2023/09/03 06:30:35;;;;;;;4.07;2.67;;;;;;;15.90;100.00;102016.50;5114293;28;20534;-70
2023/09/03 06:33:02;;;;;;;4.07;1.97;;;;;;;15.87;100.00;102020.63;5091376;28;20938;-70
2023/09/03 06:35:30;;;;;;;4.07;1.30;;;;;;;15.87;100.00;102028.00;5092608;28;20552;-71
2023/09/03 06:37:57;;;;;;;3.20;1.60;;;;;;;15.91;100.00;102020.84;5093299;28;20436;-69
2023/09/03 06:40:24;;;;;;;3.77;1.77;;;;;;;15.90;100.00;102013.75;5091876;28;20502;-70
2023/09/03 06:42:51;;;;;;;3.27;1.43;;;;;;;15.92;100.00;102011.53;5093454;28;20544;-70
2023/09/03 06:45:18;;;;;;;4.10;1.70;;;;;;;15.98;100.00;102014.97;5091352;28;20596;-71
2023/09/03 06:47:44;;;;;;;3.23;1.40;;;;;;;16.04;100.00;102019.22;5093059;28;20480;-69
2023/09/03 06:50:12;;;;;;;3.87;1.87;;;;;;;16.11;100.00;102034.13;5092364;28;20549;-69
2023/09/03 06:52:40;;;;;;;4.87;1.83;;;;;;;16.17;100.00;102037.56;5084752;28;20471;-69
2023/09/03 06:55:07;;;;;;;4.33;2.03;;;;;;;16.19;100.00;102043.53;5091560;28;20799;-69
2023/09/03 06:57:34;;;;;;;2.90;1.50;;;;;;;16.23;100.00;102038.28;5091536;28;20543;-70
2023/09/03 07:00:06;;;;;;;3.60;1.90;;;;;;;16.32;100.00;102050.94;5089765;28;20468;-69
2023/09/03 07:02:33;;;;;;;4.37;1.90;;;;;;;16.36;100.00;102068.34;5091863;28;20878;-69
2023/09/03 07:05:00;;;;;;;4.63;2.00;;;;;;;16.36;100.00;102064.81;5089011;28;20461;-69
2023/09/03 07:07:27;;;;;;;2.93;1.30;;;;;;;16.36;100.00;102064.81;5088621;28;21051;-70
2023/09/03 07:09:55;;;;;;;3.03;1.27;;;;;;;16.46;100.00;102072.00;5087624;28;20448;-68
2023/09/03 07:12:23;;;;;;;3.40;1.47;;;;;;;16.47;100.00;102057.19;5080925;28;20468;-69
2023/09/03 07:14:50;;;;;;;2.97;1.00;;;;;;;16.46;100.00;102058.31;5087289;28;20514;-70
2023/09/03 07:17:17;;;;;;;3.40;1.47;;;;;;;16.47;100.00;102068.97;5091386;28;20547;-71
2023/09/03 07:19:43;;;;;;;2.60;1.10;;;;;;;16.52;100.00;102070.81;5087001;28;20908;-67
2023/09/03 07:22:10;;;;;;;4.33;1.80;;;;;;;16.63;100.00;102078.47;5085840;28;20484;-70
2023/09/03 07:24:37;;;;;;;3.50;1.47;;;;;;;16.69;100.00;102087.41;5083442;28;20551;-71
2023/09/03 07:27:05;;;;;;;2.70;1.10;;;;;;;16.77;100.00;102088.63;5082775;28;20495;-71
2023/09/03 07:29:31;;;;;;;2.70;1.07;;;;;;;16.80;98.70;102094.31;5085101;28;20445;-71
2023/09/03 07:31:58;;;;;;;2.90;1.20;;;;;;;16.85;98.81;102093.38;5084265;28;20448;-70
2023/09/03 07:34:25;;;;;;;3.80;1.20;;;;;;;17.01;98.62;102093.88;5078938;28;20519;-70
2023/09/03 07:36:52;;;;;;;2.60;0.93;;;;;;;17.13;98.84;102075.81;5092299;28;20448;-70
2023/09/03 07:39:18;;;;;;;2.53;0.87;;;;;;;17.30;97.95;102068.81;5092298;28;20531;-70
2023/09/03 07:41:47;;;;;;;2.40;0.80;;;;;;;17.38;95.06;102077.13;5093101;28;20504;-70
2023/09/03 07:44:15;;;;;;;2.97;1.00;;;;;;;17.40;94.05;102077.63;5092503;28;20992;-71
2023/09/03 07:46:41;;;;;;;2.80;1.07;;;;;;;17.45;92.46;102075.91;5091269;28;20535;-70
2023/09/03 07:49:08;;;;;;;2.40;0.80;;;;;;;17.39;92.69;102073.25;5092090;28;20456;-70
2023/09/03 07:51:35;;;;;;;2.60;0.80;;;;;;;17.46;91.29;102085.72;5093382;28;20519;-70
2023/09/03 07:54:01;;;;;;;3.33;1.10;;;;;;;17.45;91.68;102081.38;5096295;28;20439;-70
2023/09/03 07:56:30;;;;;;;2.37;0.83;;;;;;;17.50;91.81;102081.25;5096360;28;20599;-70
2023/09/03 07:58:56;;;;;;;2.00;0.50;;;;;;;17.61;90.25;102093.56;5096175;28;21011;-70
2023/09/03 08:01:25;;;;;;;3.03;1.10;;;;;;;17.56;89.28;102105.44;5096246;28;20523;-70
2023/09/03 08:03:51;;;;;;;2.10;0.67;;;;;;;17.60;89.09;102111.13;5096075;28;20954;-70
2023/09/03 08:06:18;;;;;;;2.23;0.63;;;;;;;17.67;89.53;102111.50;5096229;28;20484;-70
2023/09/03 08:08:44;;;;;;;2.70;1.20;;;;;;;17.62;88.93;102131.63;5096141;28;20519;-70
2023/09/03 08:11:11;;;;;;;2.33;0.73;;;;;;;17.71;89.50;102150.88;5096221;28;20519;-71
2023/09/03 08:13:38;;;;;;;2.30;0.70;;;;;;;17.80;88.36;102135.34;5095852;28;20464;-70
2023/09/03 08:16:05;;;;;;;2.10;0.70;;;;;;;17.85;88.57;102129.72;5096080;28;20493;-70
2023/09/03 08:18:32;;;;;;;2.80;1.10;;;;;;;17.99;88.51;102126.09;5096107;28;20436;-70
2023/09/03 08:20:59;;;;;;;2.40;0.90;;;;;;;18.02;86.28;102111.78;5098237;22;20531;-69
2023/09/03 08:23:27;;;;;;;1.97;0.50;;;;;;;18.09;85.98;102103.88;5075390;28;20524;-69
2023/09/03 08:25:54;;;;;;;2.93;0.93;;;;;;;18.12;85.35;102109.56;5075588;28;20568;-69
2023/09/03 08:28:20;;;;;;;2.43;0.90;;;;;;;18.18;84.32;102114.91;5075266;28;20568;-69
2023/09/03 08:30:47;;;;;;;2.00;0.57;;;;;;;18.24;83.77;102114.47;5075776;28;20465;-69
2023/09/03 08:33:14;;;;;;;2.30;0.80;;;;;;;18.35;83.08;102124.03;5075559;28;20446;-69
2023/09/03 08:35:42;;;;;;;2.30;0.70;;;;;;;18.41;81.79;102120.00;5075176;28;21011;-69
2023/09/03 08:38:09;;;;;;;2.67;0.93;;;;;;;18.50;82.56;102111.81;5075463;28;20433;-69
2023/09/03 08:40:37;;;;;;;2.50;0.70;;;;;;;18.60;80.65;102116.22;5075419;28;20451;-69
2023/09/03 08:43:06;;;;;;;2.40;0.70;;;;;;;18.66;79.95;102123.19;5075137;28;20448;-70
2023/09/03 08:45:35;;;;;;;3.00;0.73;;;;;;;18.74;79.26;102121.63;5075273;28;20457;-69
2023/09/03 08:48:01;;;;;;;2.97;0.70;;;;;;;18.72;78.08;102130.16;5074871;28;20491;-70
2023/09/03 08:50:30;;;;;;;2.97;0.80;;;;;;;18.73;77.19;102120.81;5075146;28;20520;-69
2023/09/03 08:52:59;;;;;;;3.00;0.90;;;;;;;18.64;76.68;102118.03;5075142;28;20524;-69
2023/09/03 08:55:29;;;;;;;2.63;0.60;;;;;;;18.64;76.13;102117.22;5074876;28;20531;-69
2023/09/03 08:57:56;;;;;;;2.20;0.70;;;;;;;18.64;78.12;102111.72;5074629;28;20472;-69
2023/09/03 09:00:23;;;;;;;2.10;0.60;;;;;;;18.78;78.16;102109.69;5074926;28;20438;-69
2023/09/03 09:02:50;;;;;;;2.10;0.70;;;;;;;18.88;79.35;102109.38;5074378;28;20532;-69
2023/09/03 09:05:18;;;;;;;2.10;0.50;;;;;;;19.07;73.02;102124.75;5075094;28;20888;-69
2023/09/03 09:07:47;;;;;;;1.97;0.50;;;;;;;19.21;71.51;102113.63;5074379;28;20517;-69
2023/09/03 09:10:21;;;;;;;2.00;0.60;;;;;;;19.24;70.96;102118.47;5074752;28;20469;-69
2023/09/03 09:12:52;;;;;;;1.90;0.50;;;;;;;19.29;70.28;102112.81;5074399;28;20432;-69
2023/09/03 09:15:19;;;;;;;2.40;0.50;;;;;;;19.24;71.13;102116.53;5074501;28;20725;-69
2023/09/03 09:17:46;;;;;;;2.00;0.40;;;;;;;19.24;71.79;102108.28;5074753;28;20516;-69
2023/09/03 09:20:14;;;;;;;2.60;0.60;;;;;;;19.37;72.52;102110.06;5074348;28;20524;-69
2023/09/03 09:22:41;;;;;;;2.10;0.60;;;;;;;19.50;71.78;102118.50;5074216;28;20508;-69
2023/09/03 09:25:09;;;;;;;2.00;0.43;;;;;;;19.61;68.39;102117.03;5074352;28;20547;-69
2023/09/03 09:27:38;;;;;;;1.90;0.47;;;;;;;19.60;67.48;102124.47;5074347;28;20484;-69
2023/09/03 09:30:12;;;;;;;2.03;0.60;;;;;;;19.59;68.57;102124.78;5074318;28;20857;-69
2023/09/03 09:32:41;;;;;;;2.10;0.63;;;;;;;19.62;68.31;102135.19;5074349;28;20553;-69
2023/09/03 09:35:08;;;;;;;1.90;0.40;;;;;;;19.61;68.14;102139.03;5074287;28;20495;-69
2023/09/03 09:37:39;;;;;;;2.40;0.73;;;;;;;19.61;67.73;102144.53;5073904;28;20473;-70
2023/09/03 09:40:07;;;;;;;2.30;0.50;;;;;;;19.66;68.07;102141.66;5074432;28;20437;-69
2023/09/03 09:42:35;;;;;;;2.60;0.67;;;;;;;19.63;69.04;102154.09;5074092;28;20433;-68
2023/09/03 09:45:03;;;;;;;2.03;0.57;;;;;;;19.60;66.56;102132.72;5073849;28;20455;-68
2023/09/03 09:47:30;;;;;;;2.20;0.50;;;;;;;19.65;68.10;102131.75;5074071;28;20489;-68
2023/09/03 09:49:57;;;;;;;2.13;0.50;;;;;;;19.61;68.19;102134.38;5073797;28;20788;-68
2023/09/03 09:52:33;;;;;;;2.10;0.60;;;;;;;19.71;67.83;102140.66;5073922;28;20479;-68
2023/09/03 09:55:00;;;;;;;1.90;0.50;;;;;;;19.74;68.37;102140.81;5073653;28;20850;-69
2023/09/03 09:57:27;;;;;;;1.80;0.40;;;;;;;19.71;68.07;102141.47;5073595;28;20870;-68
2023/09/03 09:59:56;;;;;;;2.00;0.50;;;;;;;19.68;67.50;102138.56;5073600;28;20936;-69
2023/09/03 10:02:24;;;;;;;1.97;0.43;;;;;;;19.62;68.71;102133.22;5073778;28;20442;-69
2023/09/03 10:04:52;;;;;;;1.90;0.40;;;;;;;19.55;69.19;102129.31;5073717;28;20434;-68
2023/09/03 10:07:19;;;;;;;1.90;0.50;;;;;;;19.62;69.48;102135.19;5073741;28;20528;-68
2023/09/03 10:09:47;;;;;;;2.10;0.70;;;;;;;19.70;69.97;102126.13;5073399;28;20443;-68
2023/09/03 10:12:14;;;;;;;2.30;0.80;;;;;;;19.88;68.47;102133.22;5073460;28;20516;-68
2023/09/03 10:14:41;;;;;;;2.03;0.63;;;;;;;19.88;68.51;102121.41;5073004;28;20437;-68
2023/09/03 10:17:09;;;;;;;2.30;0.60;;;;;;;19.97;67.81;102124.94;5073617;28;20522;-68
2023/09/03 10:19:41;;;;;;;3.50;0.53;;;;;;;20.10;65.81;102123.13;5073349;28;20433;-68
2023/09/03 10:22:13;;;;;;;1.90;0.50;;;;;;;20.08;64.69;102112.44;5073679;28;20421;-68
2023/09/03 10:24:42;;;;;;;1.90;0.40;;;;;;;19.95;66.53;102120.88;5074130;28;20440;-67
2023/09/03 10:27:12;;;;;;;4.67;0.73;;;;;;;19.96;65.70;102123.28;5073481;28;20492;-67
2023/09/03 10:29:41;;;;;;;2.20;0.63;;;;;;;19.94;65.61;102119.28;5073866;28;20488;-68
2023/09/03 10:32:11;;;;;;;2.20;0.67;;;;;;;19.94;65.69;102136.59;5073517;28;20461;-68
2023/09/03 10:34:40;;;;;;;2.00;0.50;;;;;;;19.91;67.53;102131.72;5073466;28;20468;-68
2023/09/03 10:37:08;;;;;;;2.00;0.70;;;;;;;20.04;64.33;102141.72;5073435;28;20544;-68
2023/09/03 10:39:35;;;;;;;2.00;0.70;;;;;;;20.08;66.80;102136.38;5073389;28;20437;-68
2023/09/03 10:42:28;;;;;;;2.47;0.67;;;;;;;20.06;65.09;102133.97;5073712;28;20563;-68
2023/09/03 10:44:56;;;;;;;2.03;0.47;;;;;;;20.01;63.96;102145.16;5073137;28;20447;-68
2023/09/03 10:47:22;;;;;;;2.50;0.70;;;;;;;20.12;62.55;102137.34;5073291;28;20465;-68
2023/09/03 10:49:52;;;;;;;1.90;0.50;;;;;;;20.19;64.63;102136.81;5072897;28;21059;-68
2023/09/03 10:52:39;;;;;;;2.07;0.50;;;;;;;20.30;64.39;102141.66;5073318;28;20425;-68
2023/09/03 10:55:10;;;;;;;2.47;0.63;;;;;;;20.46;65.06;102141.13;5073479;28;20430;-68
2023/09/03 10:57:37;;;;;;;2.10;0.57;;;;;;;20.64;61.98;102142.69;5072899;28;20438;-68
2023/09/03 11:00:10;;;;;;;2.97;0.60;;;;;;;20.83;61.31;102148.59;5072899;28;20529;-69
2023/09/03 11:02:38;;;;;;;2.20;0.70;;;;;;;21.03;60.24;102144.28;5073437;28;20441;-68
2023/09/03 11:05:12;;;;;;;2.20;0.60;;;;;;;21.28;60.68;102144.41;5073287;28;20484;-67
2023/09/03 11:07:39;;;;;;;2.10;0.60;;;;;;;21.56;61.19;102142.75;5072814;28;20970;-68
2023/09/03 11:10:39;;;;;;;2.57;0.87;;;;;;;21.80;56.99;102144.00;5073196;28;20516;-68
2023/09/03 11:13:09;;;;;;;2.67;0.73;;;;;;;22.10;57.07;102148.22;5073209;28;20451;-68
2023/09/03 11:15:36;;;;;;;2.10;0.60;;;;;;;22.48;56.20;102149.13;5072724;28;20460;-68
2023/09/03 11:18:02;;;;;;;2.20;0.50;;;;;;;22.93;55.31;102149.03;5072963;28;20438;-67
2023/09/03 11:20:31;;;;;;;2.27;0.73;;;;;;;23.32;55.05;102150.22;5072921;28;20549;-68
2023/09/03 11:22:58;;;;;;;2.10;0.60;;;;;;;23.67;54.83;102157.97;5072738;28;21009;-68